createdAt,value
2019-05-30T00:00:16.982Z,4.33
2019-05-30T00:02:39.137Z,3.20
2019-05-30T00:05:08.102Z,3.77
2019-05-30T00:07:35.350Z,5.42
2019-05-30T00:10:03.157Z,3.85
2019-05-30T00:12:31.289Z,4.62
2019-05-30T00:14:58.860Z,3.85
2019-05-30T00:17:25.899Z,5.72
2019-05-30T00:19:53.046Z,4.22
2019-05-30T00:22:20.090Z,4.33
2019-05-30T00:24:48.914Z,5.33
2019-05-30T00:27:15.997Z,5.30
2019-05-30T00:29:42.912Z,5.12
2019-05-30T00:32:09.932Z,6.15
2019-05-30T00:34:36.703Z,6.17
2019-05-30T00:37:04.109Z,6.25
2019-05-30T00:39:31.415Z,2.87
2019-05-30T00:41:58.017Z,3.47
2019-05-30T00:44:25.239Z,4.87
2019-05-30T00:46:53.411Z,2.33
2019-05-30T00:49:20.129Z,5.97
2019-05-30T00:51:47.106Z,2.83
2019-05-30T00:54:14.179Z,3.72
2019-05-30T00:56:42.157Z,3.17
2019-05-30T00:59:09.642Z,4.70
2019-05-30T01:01:38.195Z,3.72
2019-05-30T01:04:05.164Z,4.10
2019-05-30T01:06:32.351Z,2.80
2019-05-30T01:08:59.172Z,4.55
2019-05-30T01:11:26.042Z,5.42
2019-05-30T01:13:52.931Z,9.50
2019-05-30T01:16:20.418Z,9.13
2019-05-30T01:18:47.227Z,5.45
2019-05-30T01:21:14.424Z,6.92
2019-05-30T01:23:43.952Z,6.40
2019-05-30T01:26:10.748Z,6.10
2019-05-30T01:28:37.613Z,3.85
2019-05-30T01:31:09.499Z,7.62
2019-05-30T01:33:35.128Z,4.33
2019-05-30T01:36:02.043Z,7.55
2019-05-30T01:38:39.010Z,3.20
2019-05-30T01:41:06.329Z,5.72
2019-05-30T01:43:33.286Z,3.50
2019-05-30T01:46:00.541Z,5.25
2019-05-30T01:48:27.432Z,7.78
2019-05-30T01:50:54.552Z,4.65
2019-05-30T01:53:21.129Z,3.83
2019-05-30T01:55:48.894Z,6.70
2019-05-30T01:58:15.933Z,7.10
2019-05-30T02:00:42.765Z,6.40
2019-05-30T02:03:10.047Z,5.65
2019-05-30T02:05:37.304Z,5.22
2019-05-30T02:08:05.271Z,5.70
2019-05-30T02:10:32.756Z,5.00
2019-05-30T02:12:59.717Z,5.25
2019-05-30T02:15:27.490Z,5.03
2019-05-30T02:17:54.691Z,7.40
2019-05-30T02:20:23.253Z,6.58
2019-05-30T02:22:49.930Z,5.12
2019-05-30T02:25:17.294Z,6.17
2019-05-30T02:27:44.542Z,5.20
2019-05-30T02:30:20.906Z,5.42
2019-05-30T02:32:47.476Z,5.40
2019-05-30T02:35:14.280Z,5.28
2019-05-30T02:37:41.131Z,5.80
2019-05-30T02:40:12.362Z,8.30
2019-05-30T02:42:37.661Z,5.90
2019-05-30T02:45:05.739Z,6.15
2019-05-30T02:47:33.993Z,8.70
2019-05-30T02:50:01.484Z,10.60
2019-05-30T02:52:29.291Z,8.70
2019-05-30T02:54:55.958Z,9.05
2019-05-30T02:57:22.837Z,8.05
2019-05-30T02:59:55.958Z,6.28
2019-05-30T03:02:23.772Z,8.78
2019-05-30T03:04:50.858Z,6.75
2019-05-30T03:07:18.093Z,6.87
2019-05-30T03:09:48.417Z,8.60
2019-05-30T03:12:15.163Z,7.78
2019-05-30T03:14:42.217Z,10.58
2019-05-30T03:17:11.884Z,8.70
2019-05-30T03:19:38.598Z,10.68
2019-05-30T03:22:06.922Z,7.70
2019-05-30T03:24:34.911Z,9.55
2019-05-30T03:27:02.632Z,10.70
2019-05-30T03:29:29.690Z,8.88
2019-05-30T03:32:33.785Z,7.70
2019-05-30T03:34:29.544Z,9.53
2019-05-30T03:36:56.854Z,9.23
2019-05-30T03:39:23.609Z,9.40
2019-05-30T03:41:50.730Z,11.60
2019-05-30T03:44:17.443Z,10.32
2019-05-30T03:46:51.006Z,8.60
2019-05-30T03:49:21.443Z,10.38
2019-05-30T03:51:50.099Z,9.13
2019-05-30T03:54:18.016Z,10.82
2019-05-30T03:56:50.663Z,10.03
2019-05-30T03:59:24.376Z,9.20
2019-05-30T04:01:55.029Z,7.60
2019-05-30T04:04:31.678Z,8.38
2019-05-30T04:07:13.842Z,9.53
2019-05-30T04:09:41.684Z,12.40
2019-05-30T04:12:30.374Z,11.88
2019-05-30T04:15:01.230Z,10.15
2019-05-30T04:17:28.414Z,8.35
2019-05-30T04:19:55.954Z,8.33
2019-05-30T04:22:23.088Z,12.63
2019-05-30T04:24:49.922Z,10.05
2019-05-30T04:27:18.724Z,9.98
2019-05-30T04:29:45.730Z,13.43
2019-05-30T04:32:14.321Z,13.00
2019-05-30T04:34:41.428Z,10.03
2019-05-30T04:37:10.513Z,11.15
2019-05-30T04:39:37.845Z,12.47
2019-05-30T04:42:11.184Z,13.40
2019-05-30T04:44:38.841Z,10.15
2019-05-30T04:47:06.061Z,11.33
2019-05-30T04:49:38.256Z,13.15
2019-05-30T04:52:13.956Z,12.43
2019-05-30T04:54:38.694Z,15.70
2019-05-30T04:57:05.412Z,12.70
2019-05-30T04:59:32.438Z,13.85
2019-05-30T05:01:59.477Z,12.53
2019-05-30T05:04:28.110Z,12.60
2019-05-30T05:06:54.940Z,12.73
2019-05-30T05:09:22.414Z,12.40
2019-05-30T05:11:49.389Z,14.30
2019-05-30T05:14:18.579Z,14.00
2019-05-30T05:16:45.498Z,12.60
2019-05-30T05:19:12.931Z,9.48
2019-05-30T05:21:39.981Z,11.38
2019-05-30T05:24:06.972Z,16.32
2019-05-30T05:26:33.664Z,13.13
2019-05-30T05:29:00.621Z,12.95
2019-05-30T05:31:27.474Z,13.00
2019-05-30T05:33:57.088Z,11.63
2019-05-30T05:36:25.089Z,16.95
2019-05-30T05:38:51.849Z,16.85
2019-05-30T05:41:18.504Z,13.05
2019-05-30T05:43:46.459Z,11.35
2019-05-30T05:46:13.047Z,12.73
2019-05-30T05:48:39.879Z,11.25
2019-05-30T05:51:06.931Z,15.75
2019-05-30T05:53:34.088Z,13.05
2019-05-30T05:56:00.885Z,15.18
2019-05-30T05:58:29.253Z,13.80
2019-05-30T06:00:56.360Z,15.28
2019-05-30T06:03:24.263Z,15.68
2019-05-30T06:05:53.341Z,13.58
2019-05-30T06:08:21.428Z,15.85
2019-05-30T06:10:48.605Z,11.80
2019-05-30T06:13:22.771Z,15.93
2019-05-30T06:15:50.112Z,17.90
2019-05-30T06:18:20.038Z,12.55
2019-05-30T06:20:49.596Z,15.32
2019-05-30T06:23:21.594Z,19.82
2019-05-30T06:25:48.908Z,15.55
2019-05-30T06:28:19.890Z,14.45
2019-05-30T06:30:53.938Z,22.75
2019-05-30T06:33:21.055Z,14.13
2019-05-30T06:35:49.934Z,18.70
2019-05-30T06:38:17.297Z,19.15
2019-05-30T06:40:48.633Z,21.02
2019-05-30T06:43:15.561Z,17.00
2019-05-30T06:45:42.261Z,19.20
2019-05-30T06:48:08.968Z,19.35
2019-05-30T06:50:36.225Z,19.52
2019-05-30T06:53:06.195Z,19.85
2019-05-30T06:55:33.075Z,17.40
2019-05-30T06:58:02.371Z,18.20
2019-05-30T07:00:33.729Z,19.32
2019-05-30T07:03:06.092Z,19.23
2019-05-30T07:05:34.697Z,19.20
2019-05-30T07:08:10.331Z,22.85
2019-05-30T07:10:37.568Z,18.42
2019-05-30T07:13:12.001Z,20.20
2019-05-30T07:15:39.495Z,21.30
2019-05-30T07:18:06.199Z,21.23
2019-05-30T07:20:33.834Z,21.00
2019-05-30T07:23:02.748Z,15.48
2019-05-30T07:25:30.117Z,18.30
2019-05-30T07:27:57.328Z,18.05
2019-05-30T07:30:27.833Z,16.95
2019-05-30T07:32:57.092Z,17.92
2019-05-30T07:35:24.026Z,17.15
2019-05-30T07:37:52.902Z,19.45
2019-05-30T07:40:20.237Z,18.35
2019-05-30T07:42:48.567Z,19.02
2019-05-30T07:45:16.225Z,18.75
2019-05-30T07:47:48.762Z,17.87
2019-05-30T07:50:15.946Z,18.35
2019-05-30T07:52:42.869Z,14.70
2019-05-30T07:55:10.860Z,19.30
2019-05-30T07:57:44.548Z,16.45
2019-05-30T08:00:13.872Z,16.85
2019-05-30T08:02:40.779Z,15.58
2019-05-30T08:05:22.981Z,13.15
2019-05-30T08:07:37.137Z,18.65
2019-05-30T08:10:06.230Z,14.18
2019-05-30T08:12:36.146Z,13.68
2019-05-30T08:15:07.825Z,15.60
2019-05-30T08:17:35.684Z,13.28
2019-05-30T08:20:06.301Z,17.57
2019-05-30T08:22:39.821Z,14.50
2019-05-30T08:25:15.067Z,10.68
2019-05-30T08:27:43.923Z,12.90
2019-05-30T08:30:23.370Z,10.70
2019-05-30T08:32:50.746Z,11.20
2019-05-30T08:35:39.105Z,14.65
2019-05-30T08:37:55.409Z,14.60
2019-05-30T08:40:31.146Z,9.93
2019-05-30T08:42:59.003Z,8.50
2019-05-30T08:45:26.671Z,8.15
2019-05-30T08:47:54.206Z,10.95
2019-05-30T08:50:21.349Z,8.03
2019-05-30T08:52:48.426Z,9.73
2019-05-30T08:55:15.990Z,9.23
2019-05-30T08:57:42.974Z,8.75
2019-05-30T09:00:15.068Z,7.50
2019-05-30T09:02:42.927Z,8.45
2019-05-30T09:05:10.553Z,5.83
2019-05-30T09:07:40.264Z,9.35
2019-05-30T09:10:09.769Z,7.33
2019-05-30T09:12:38.498Z,6.65
2019-05-30T09:15:10.285Z,10.85
2019-05-30T09:17:38.700Z,13.30
2019-05-30T09:20:07.000Z,10.45
2019-05-30T09:22:33.728Z,10.05
2019-05-30T09:25:00.273Z,12.43
2019-05-30T09:27:28.059Z,8.20
2019-05-30T09:29:55.558Z,8.73
2019-05-30T09:32:22.485Z,6.50
2019-05-30T09:34:49.846Z,6.97
2019-05-30T09:37:16.639Z,6.87
2019-05-30T09:39:43.473Z,8.25
2019-05-30T09:42:10.494Z,9.73
2019-05-30T09:44:37.220Z,7.60
2019-05-30T09:47:04.025Z,7.60
2019-05-30T09:49:30.721Z,5.80
2019-05-30T09:51:57.433Z,5.92
2019-05-30T09:54:25.989Z,7.05
2019-05-30T09:56:53.501Z,6.50
2019-05-30T09:59:21.563Z,4.17
2019-05-30T10:01:50.034Z,4.97
2019-05-30T10:04:17.170Z,4.75
2019-05-30T10:06:46.295Z,7.78
2019-05-30T10:09:13.492Z,5.72
2019-05-30T10:11:41.505Z,7.87
2019-05-30T10:14:08.697Z,3.83
2019-05-30T10:16:35.295Z,4.35
2019-05-30T10:19:03.382Z,5.85
2019-05-30T10:21:30.302Z,7.12
2019-05-30T10:23:57.600Z,4.40
2019-05-30T10:26:24.265Z,5.65
2019-05-30T10:28:51.439Z,4.40
2019-05-30T10:31:18.097Z,7.62
2019-05-30T10:33:46.329Z,5.55
2019-05-30T10:36:14.817Z,4.33
2019-05-30T10:38:41.487Z,6.15
2019-05-30T10:41:08.113Z,3.87
2019-05-30T10:43:34.637Z,4.08
2019-05-30T10:46:01.035Z,6.85
2019-05-30T10:48:27.505Z,4.12
2019-05-30T10:50:54.462Z,5.40
2019-05-30T10:53:21.309Z,3.65
2019-05-30T10:55:48.212Z,3.00
2019-05-30T10:58:14.891Z,5.80
2019-05-30T11:00:45.639Z,3.95
2019-05-30T11:03:13.840Z,4.90
2019-05-30T11:05:43.922Z,3.58
2019-05-30T11:08:14.358Z,5.25
2019-05-30T11:10:41.685Z,5.42
2019-05-30T11:13:11.344Z,11.60
2019-05-30T11:15:38.376Z,9.13
2019-05-30T11:18:05.027Z,11.80
2019-05-30T11:20:32.119Z,16.15
2019-05-30T11:22:58.616Z,20.05
2019-05-30T11:25:25.046Z,23.87
2019-05-30T11:27:52.632Z,55.63
2019-05-30T11:30:19.706Z,11.48
2019-05-30T11:32:46.256Z,13.22
2019-05-30T11:35:13.179Z,16.65
2019-05-30T11:37:39.672Z,9.53
2019-05-30T11:40:07.139Z,15.30
2019-05-30T11:42:40.873Z,17.42
2019-05-30T11:45:12.435Z,18.70
2019-05-30T11:47:39.176Z,24.18
2019-05-30T11:50:08.195Z,29.15
2019-05-30T11:52:34.742Z,24.57
2019-05-30T11:55:01.234Z,21.77
2019-05-30T11:57:28.101Z,18.25
2019-05-30T11:59:54.615Z,11.38
2019-05-30T12:02:21.043Z,14.00
2019-05-30T12:04:47.535Z,10.68
2019-05-30T12:07:14.242Z,7.80
2019-05-30T12:09:40.886Z,7.70
2019-05-30T12:12:07.295Z,9.33
2019-05-30T12:14:33.819Z,11.63
2019-05-30T12:17:01.403Z,12.75
2019-05-30T12:19:28.010Z,8.35
2019-05-30T12:22:08.268Z,6.40
2019-05-30T12:24:34.747Z,7.35
2019-05-30T12:27:02.348Z,13.08
2019-05-30T12:29:28.980Z,11.12
2019-05-30T12:31:58.602Z,11.28
2019-05-30T12:34:23.974Z,11.00
2019-05-30T12:36:50.626Z,13.20
2019-05-30T12:39:17.329Z,11.22
2019-05-30T12:41:44.141Z,14.10
2019-05-30T12:44:10.847Z,13.50
2019-05-30T12:46:37.531Z,11.88
2019-05-30T12:49:04.104Z,8.48
2019-05-30T12:51:30.473Z,13.13
2019-05-30T12:53:56.881Z,7.58
2019-05-30T12:56:25.087Z,8.60
2019-05-30T12:58:51.686Z,6.25
2019-05-30T13:01:18.296Z,5.75
2019-05-30T13:03:44.762Z,5.50
2019-05-30T13:06:14.451Z,6.45
2019-05-30T13:08:41.077Z,4.70
2019-05-30T13:11:07.607Z,6.37
2019-05-30T13:13:34.190Z,5.45
2019-05-30T13:16:02.962Z,4.28
2019-05-30T13:18:29.278Z,3.22
2019-05-30T13:20:56.227Z,2.95
2019-05-30T13:23:22.858Z,4.05
2019-05-30T13:25:49.773Z,3.08
2019-05-30T13:28:16.581Z,3.10
2019-05-30T13:30:43.257Z,4.22
2019-05-30T13:33:09.738Z,2.87
2019-05-30T13:35:36.452Z,3.55
2019-05-30T13:38:03.260Z,2.45
2019-05-30T13:40:29.942Z,2.22
2019-05-30T13:42:57.777Z,1.90
2019-05-30T13:45:25.666Z,2.05
2019-05-30T13:47:52.237Z,1.75
2019-05-30T13:50:18.987Z,4.28
2019-05-30T13:52:45.476Z,1.62
2019-05-30T13:55:12.751Z,2.08
2019-05-30T13:57:39.428Z,1.27
2019-05-30T14:00:08.040Z,2.50
2019-05-30T14:02:36.710Z,1.62
2019-05-30T14:05:06.075Z,2.10
2019-05-30T14:07:32.968Z,2.20
2019-05-30T14:10:00.271Z,2.60
2019-05-30T14:12:26.963Z,1.75
2019-05-30T14:14:53.658Z,3.05
2019-05-30T14:17:20.142Z,2.40
2019-05-30T14:19:46.618Z,4.40
2019-05-30T14:22:13.063Z,4.78
2019-05-30T14:24:39.873Z,1.65
2019-05-30T14:27:07.625Z,2.87
2019-05-30T14:29:34.227Z,4.15
2019-05-30T14:32:02.166Z,3.87
2019-05-30T14:34:29.074Z,4.25
2019-05-30T14:36:55.443Z,3.47
2019-05-30T14:39:22.144Z,2.75
2019-05-30T14:41:51.072Z,1.77
2019-05-30T14:44:19.145Z,4.12
2019-05-30T14:46:46.150Z,2.87
2019-05-30T14:49:13.306Z,2.60
2019-05-30T14:51:40.470Z,4.12
2019-05-30T14:54:08.636Z,4.15
2019-05-30T14:56:36.031Z,9.68
2019-05-30T14:59:02.910Z,5.40
2019-05-30T15:01:29.562Z,4.35
2019-05-30T15:03:56.223Z,7.78
2019-05-30T15:06:22.998Z,5.55
2019-05-30T15:08:49.724Z,7.67
2019-05-30T15:11:17.637Z,4.65
2019-05-30T15:13:44.334Z,3.70
2019-05-30T15:16:11.234Z,4.47
2019-05-30T15:18:39.030Z,4.92
2019-05-30T15:21:06.297Z,7.97
2019-05-30T15:23:33.035Z,7.50
2019-05-30T15:25:59.755Z,5.53
2019-05-30T15:28:26.402Z,6.22
2019-05-30T15:30:53.113Z,6.97
2019-05-30T15:33:19.583Z,5.97
2019-05-30T15:35:46.119Z,3.80
2019-05-30T15:38:12.951Z,5.75
2019-05-30T15:40:39.972Z,5.15
2019-05-30T15:43:07.286Z,7.72
2019-05-30T15:45:34.179Z,4.45
2019-05-30T15:48:02.756Z,6.55
2019-05-30T15:50:29.605Z,4.80
2019-05-30T15:52:56.467Z,5.25
2019-05-30T15:55:23.349Z,9.55
2019-05-30T15:57:52.178Z,4.78
2019-05-30T16:00:19.982Z,5.40
2019-05-30T16:02:46.777Z,3.70
2019-05-30T16:05:14.578Z,4.33
2019-05-30T16:07:41.597Z,4.42
2019-05-30T16:10:10.721Z,5.33
2019-05-30T16:12:37.628Z,4.75
2019-05-30T16:15:07.205Z,5.42
2019-05-30T16:17:33.978Z,6.78
2019-05-30T16:20:00.590Z,4.45
2019-05-30T16:22:27.264Z,6.95
2019-05-30T16:24:54.096Z,6.58
2019-05-30T16:27:21.792Z,7.47
2019-05-30T16:29:48.368Z,7.75
2019-05-30T16:32:15.829Z,6.47
2019-05-30T16:34:42.481Z,5.03
2019-05-30T16:37:09.077Z,5.55
2019-05-30T16:39:35.708Z,4.72
2019-05-30T16:42:02.547Z,5.08
2019-05-30T16:44:29.215Z,3.70
2019-05-30T16:46:55.955Z,4.40
2019-05-30T16:49:22.934Z,7.10
2019-05-30T16:51:50.088Z,9.70
2019-05-30T16:54:17.172Z,5.12
2019-05-30T16:56:44.400Z,4.17
2019-05-30T16:59:11.058Z,7.12
2019-05-30T17:01:37.719Z,6.15
2019-05-30T17:04:04.404Z,7.95
2019-05-30T17:06:30.889Z,5.25
2019-05-30T17:08:57.482Z,6.10
2019-05-30T17:11:24.038Z,6.08
2019-05-30T17:13:50.732Z,7.47
2019-05-30T17:16:18.407Z,6.75
2019-05-30T17:18:45.170Z,7.80
2019-05-30T17:21:11.999Z,7.78
2019-05-30T17:23:38.660Z,14.95
2019-05-30T17:26:05.375Z,10.40
2019-05-30T17:28:32.115Z,8.23
2019-05-30T17:30:58.742Z,7.30
2019-05-30T17:33:26.605Z,10.85
2019-05-30T17:35:53.300Z,6.83
2019-05-30T17:38:20.440Z,13.58
2019-05-30T17:40:49.634Z,6.25
2019-05-30T17:43:15.669Z,8.03
2019-05-30T17:45:42.099Z,6.42
2019-05-30T17:48:16.378Z,16.42
2019-05-30T17:50:37.275Z,21.80
2019-05-30T17:53:04.236Z,16.85
2019-05-30T17:55:30.992Z,5.08
2019-05-30T17:58:00.797Z,10.60
2019-05-30T18:00:28.538Z,7.08
2019-05-30T18:02:55.409Z,9.43
2019-05-30T18:05:22.639Z,7.95
2019-05-30T18:07:49.415Z,16.75
2019-05-30T18:10:16.340Z,11.12
2019-05-30T18:12:43.285Z,7.53
2019-05-30T18:15:12.824Z,7.80
2019-05-30T18:17:39.477Z,8.58
2019-05-30T18:20:07.630Z,7.00
2019-05-30T18:22:34.124Z,7.28
2019-05-30T18:25:00.593Z,7.40
2019-05-30T18:27:28.041Z,9.23
2019-05-30T18:29:54.986Z,4.10
2019-05-30T18:32:22.161Z,4.67
2019-05-30T18:34:49.261Z,6.87
2019-05-30T18:37:16.074Z,4.83
2019-05-30T18:39:42.732Z,3.45
2019-05-30T18:42:09.322Z,3.50
2019-05-30T18:44:35.938Z,5.25
2019-05-30T18:47:03.433Z,4.33
2019-05-30T18:49:29.880Z,3.75
2019-05-30T18:51:56.452Z,5.30
2019-05-30T18:54:24.335Z,5.75
2019-05-30T18:56:50.994Z,5.05
2019-05-30T18:59:17.579Z,4.80
2019-05-30T19:01:45.856Z,3.80
2019-05-30T19:04:13.219Z,4.20
2019-05-30T19:06:40.951Z,5.55
2019-05-30T19:09:07.508Z,4.15
2019-05-30T19:11:36.513Z,4.85
2019-05-30T19:14:03.469Z,3.33
2019-05-30T19:16:30.829Z,2.52
2019-05-30T19:18:57.455Z,7.87
2019-05-30T19:21:25.815Z,5.45
2019-05-30T19:23:52.503Z,5.08
2019-05-30T19:26:18.988Z,4.33
2019-05-30T19:28:45.693Z,5.17
2019-05-30T19:31:12.478Z,5.22
2019-05-30T19:33:38.860Z,3.25
2019-05-30T19:36:05.558Z,5.30
2019-05-30T19:38:33.274Z,4.20
2019-05-30T19:41:00.055Z,4.95
2019-05-30T19:43:27.552Z,5.72
2019-05-30T19:45:54.261Z,7.28
2019-05-30T19:48:20.790Z,5.25
2019-05-30T19:50:47.124Z,7.20
2019-05-30T19:53:13.754Z,3.77
2019-05-30T19:55:40.288Z,3.72
2019-05-30T19:58:06.824Z,3.52
2019-05-30T20:00:34.058Z,3.62
2019-05-30T20:03:01.909Z,2.80
2019-05-30T20:05:30.509Z,9.60
2019-05-30T20:07:58.910Z,3.27
2019-05-30T20:10:25.584Z,5.28
2019-05-30T20:12:52.328Z,5.78
2019-05-30T20:15:19.145Z,7.35
2019-05-30T20:17:46.505Z,5.47
2019-05-30T20:20:13.533Z,4.35
2019-05-30T20:22:40.313Z,5.78
2019-05-30T20:25:08.570Z,4.85
2019-05-30T20:27:36.692Z,6.72
2019-05-30T20:30:08.635Z,6.17
2019-05-30T20:32:36.438Z,6.62
2019-05-30T20:35:04.768Z,4.08
2019-05-30T20:37:31.411Z,5.17
2019-05-30T20:39:57.900Z,4.47
2019-05-30T20:42:24.447Z,6.70
2019-05-30T20:44:51.245Z,5.80
2019-05-30T20:47:18.436Z,4.42
2019-05-30T20:49:45.380Z,4.78
2019-05-30T20:52:12.363Z,6.17
2019-05-30T20:54:39.533Z,6.12
2019-05-30T20:57:06.310Z,5.42
2019-05-30T20:59:34.258Z,3.22
2019-05-30T21:02:01.254Z,4.97
2019-05-30T21:04:28.387Z,5.87
2019-05-30T21:06:56.280Z,4.97
2019-05-30T21:09:28.837Z,4.17
2019-05-30T21:11:52.963Z,3.22
2019-05-30T21:14:19.851Z,4.67
2019-05-30T21:16:47.670Z,3.00
2019-05-30T21:19:14.549Z,4.83
2019-05-30T21:21:42.538Z,4.40
2019-05-30T21:24:09.570Z,4.05
2019-05-30T21:26:36.697Z,3.98
2019-05-30T21:29:04.359Z,4.53
2019-05-30T21:31:31.012Z,2.85
2019-05-30T21:33:57.806Z,5.62
2019-05-30T21:36:26.794Z,5.87
2019-05-30T21:38:53.294Z,7.00
2019-05-30T21:41:21.286Z,4.70
2019-05-30T21:43:49.023Z,7.47
2019-05-30T21:46:17.760Z,5.78
2019-05-30T21:48:44.966Z,6.12
2019-05-30T21:51:11.666Z,6.37
2019-05-30T21:53:39.379Z,4.90
2019-05-30T21:56:06.265Z,4.72
2019-05-30T21:58:32.782Z,6.00
2019-05-30T22:01:08.546Z,3.60
2019-05-30T22:03:35.435Z,6.62
2019-05-30T22:06:03.823Z,4.97
2019-05-30T22:08:30.469Z,6.83
2019-05-30T22:10:57.247Z,7.53
2019-05-30T22:13:23.754Z,5.67
2019-05-30T22:15:50.374Z,5.67
2019-05-30T22:18:16.810Z,6.42
2019-05-30T22:20:43.911Z,5.92
2019-05-30T22:23:11.161Z,6.58
2019-05-30T22:25:38.232Z,5.78
2019-05-30T22:28:04.695Z,7.55
2019-05-30T22:30:31.259Z,4.55
2019-05-30T22:32:57.619Z,6.65
2019-05-30T22:35:24.054Z,5.22
2019-05-30T22:37:51.021Z,5.70
2019-05-30T22:40:17.489Z,4.55
2019-05-30T22:42:46.320Z,8.68
2019-05-30T22:45:13.272Z,4.22
2019-05-30T22:47:39.916Z,3.95
2019-05-30T22:50:06.903Z,6.00
2019-05-30T22:52:33.508Z,5.80
2019-05-30T22:55:00.263Z,7.75
2019-05-30T22:57:26.941Z,8.00
2019-05-30T22:59:53.434Z,7.65
2019-05-30T23:02:19.933Z,5.35
2019-05-30T23:04:46.503Z,6.00
2019-05-30T23:07:13.442Z,8.15
2019-05-30T23:09:42.958Z,8.65
2019-05-30T23:12:09.509Z,5.83
2019-05-30T23:14:36.165Z,6.67
2019-05-30T23:17:03.280Z,8.10
2019-05-30T23:19:30.066Z,5.83
2019-05-30T23:21:57.300Z,6.03
2019-05-30T23:24:24.114Z,8.10
2019-05-30T23:26:51.747Z,7.78
2019-05-30T23:29:18.728Z,8.35
2019-05-30T23:31:45.440Z,8.20
2019-05-30T23:34:12.217Z,6.90
2019-05-30T23:36:38.835Z,7.97
2019-05-30T23:39:05.840Z,8.98
2019-05-30T23:41:32.733Z,8.98
2019-05-30T23:44:10.752Z,6.50
2019-05-30T23:46:28.244Z,7.92
2019-05-30T23:48:55.840Z,8.68
2019-05-30T23:51:22.868Z,10.88
2019-05-30T23:53:50.052Z,8.40
2019-05-30T23:56:16.815Z,7.87
2019-05-30T23:58:43.694Z,8.10
